createdAt,value
2022-12-12T05:04:57.400Z,5.60
2022-12-12T05:51:36.533Z,3.35
2022-12-12T05:57:17.487Z,3.88
2022-12-12T06:00:05.550Z,4.28
2022-12-12T06:02:53.498Z,3.97
2022-12-12T06:05:40.029Z,4.10
2022-12-12T06:08:28.053Z,4.22
2022-12-12T06:11:15.356Z,4.20
2022-12-12T06:14:01.988Z,4.07
2022-12-12T06:16:49.193Z,4.53
2022-12-12T06:19:35.708Z,3.72
2022-12-12T06:22:32.165Z,3.97
2022-12-12T06:25:33.899Z,3.53
2022-12-12T06:28:20.400Z,4.05
2022-12-12T06:31:11.284Z,3.53
2022-12-12T06:33:58.325Z,3.80
2022-12-12T06:36:44.978Z,3.53
2022-12-12T06:39:33.274Z,3.08
2022-12-12T06:42:21.385Z,3.25
2022-12-12T06:45:08.473Z,3.30
2022-12-12T06:47:55.837Z,3.65
2022-12-12T06:50:49.939Z,3.90
2022-12-12T06:59:38.742Z,2.95
2022-12-12T07:06:06.485Z,3.70
2022-12-12T07:08:53.193Z,3.13
2022-12-12T07:11:41.286Z,3.28
2022-12-12T07:14:28.006Z,3.30
2022-12-12T07:17:14.376Z,3.38
2022-12-12T07:20:00.482Z,3.17
2022-12-12T07:22:46.957Z,2.72
2022-12-12T07:25:34.149Z,3.10
2022-12-12T07:28:20.596Z,2.92
2022-12-12T07:31:08.955Z,3.10
2022-12-12T07:33:56.196Z,3.13
2022-12-12T07:36:43.186Z,2.58
2022-12-12T07:39:34.353Z,2.63
2022-12-12T07:42:20.819Z,1.88
2022-12-12T07:45:08.122Z,2.67
2022-12-12T07:47:54.906Z,3.22
2022-12-12T07:50:42.733Z,2.95
2022-12-12T07:53:29.231Z,3.42
2022-12-12T07:56:17.015Z,3.22
2022-12-12T07:59:03.800Z,3.08
2022-12-12T08:01:50.062Z,3.30
2022-12-12T08:04:36.559Z,3.17
2022-12-12T08:07:22.703Z,2.97
2022-12-12T08:10:09.785Z,3.20
2022-12-12T08:12:56.937Z,3.38
2022-12-12T08:15:45.263Z,3.22
2022-12-12T08:18:31.701Z,3.35
2022-12-12T08:21:25.182Z,2.80
2022-12-12T08:24:13.829Z,3.65
2022-12-12T08:27:00.311Z,3.55
2022-12-12T08:29:47.120Z,3.03
2022-12-12T08:32:34.282Z,2.92
2022-12-12T08:35:25.607Z,2.33
2022-12-12T08:38:11.778Z,3.60
2022-12-12T08:40:58.005Z,4.32
2022-12-12T08:43:45.387Z,3.40
2022-12-12T08:46:32.493Z,3.13
2022-12-12T08:49:19.357Z,3.90
2022-12-12T08:52:10.624Z,4.13
2022-12-12T08:54:57.347Z,4.50
2022-12-12T08:57:44.026Z,4.63
2022-12-12T09:00:30.886Z,4.00
2022-12-12T09:03:18.371Z,4.03
2022-12-12T09:06:07.055Z,4.47
2022-12-12T09:08:59.571Z,4.28
2022-12-12T09:11:46.028Z,3.90
2022-12-12T09:14:33.168Z,3.83
2022-12-12T09:17:19.931Z,3.92
2022-12-12T09:20:06.895Z,3.88
2022-12-12T09:22:53.014Z,4.22
2022-12-12T09:25:42.635Z,4.30
2022-12-12T09:28:30.263Z,4.40
2022-12-12T09:31:17.857Z,3.67
2022-12-12T09:34:04.489Z,4.35
2022-12-12T09:36:51.291Z,4.35
2022-12-12T09:39:38.211Z,4.45
2022-12-12T09:42:27.162Z,4.15
2022-12-12T09:45:14.203Z,4.65
2022-12-12T09:48:03.287Z,5.03
2022-12-12T09:50:50.111Z,4.43
2022-12-12T09:53:37.101Z,4.50
2022-12-12T09:56:26.822Z,4.65
2022-12-12T09:59:18.201Z,4.18
2022-12-12T10:02:16.622Z,4.30
2022-12-12T10:05:19.066Z,4.93
2022-12-12T10:08:17.868Z,4.55
2022-12-12T10:11:08.318Z,4.78
2022-12-12T10:13:54.774Z,4.53
2022-12-12T10:16:55.703Z,4.68
2022-12-12T10:19:48.179Z,4.18
2022-12-12T10:22:44.275Z,4.38
2022-12-12T10:25:40.385Z,4.32
2022-12-12T10:28:28.054Z,4.05
2022-12-12T10:31:34.482Z,4.57
2022-12-12T10:34:41.044Z,4.22
2022-12-12T10:37:30.232Z,4.68
2022-12-12T10:40:28.562Z,4.63
2022-12-12T10:43:17.949Z,4.68
2022-12-12T10:46:17.001Z,4.03
2022-12-12T10:49:03.492Z,4.15
2022-12-12T10:51:51.111Z,4.00
2022-12-12T10:54:42.504Z,4.43
2022-12-12T10:57:29.817Z,4.80
2022-12-12T11:00:18.075Z,4.55
2022-12-12T11:03:25.165Z,4.20
2022-12-12T11:06:13.701Z,4.07
2022-12-12T11:09:08.470Z,4.75
2022-12-12T11:12:02.829Z,4.40
2022-12-12T11:14:54.437Z,4.45
2022-12-12T11:17:41.601Z,4.60
2022-12-12T11:20:27.817Z,4.40
2022-12-12T11:23:23.946Z,4.68
2022-12-12T11:26:16.645Z,4.55
2022-12-12T11:29:06.300Z,4.68
2022-12-12T11:31:52.968Z,4.50
2022-12-12T11:34:40.465Z,4.55
2022-12-12T11:37:34.653Z,4.60
2022-12-12T11:40:26.514Z,4.43
2022-12-12T11:43:28.023Z,4.07
2022-12-12T11:46:14.464Z,4.10
2022-12-12T11:49:02.514Z,3.58
2022-12-12T11:51:48.923Z,4.70
2022-12-12T11:54:35.926Z,4.10
2022-12-12T11:57:31.920Z,4.00
2022-12-12T12:00:22.764Z,4.57
2022-12-12T12:03:09.162Z,4.07
2022-12-12T12:05:58.200Z,4.35
2022-12-12T12:08:53.700Z,4.60
2022-12-12T12:11:40.464Z,4.00
2022-12-12T12:14:52.954Z,4.43
2022-12-12T12:17:58.767Z,4.50
2022-12-12T12:20:53.970Z,4.53
2022-12-12T12:23:50.689Z,4.57
2022-12-12T12:26:37.625Z,4.55
2022-12-12T12:29:30.830Z,4.78
2022-12-12T12:32:17.200Z,4.32
2022-12-12T12:35:22.190Z,4.45
2022-12-12T12:38:18.249Z,4.90
2022-12-12T12:41:10.772Z,4.88
2022-12-12T12:44:12.297Z,4.65
2022-12-12T12:47:17.663Z,4.25
2022-12-12T12:50:14.927Z,5.07
2022-12-12T12:53:03.480Z,5.00
2022-12-12T12:55:52.039Z,5.15
2022-12-12T12:58:43.875Z,5.20
2022-12-12T13:01:33.321Z,5.03
2022-12-12T13:04:22.862Z,5.72
2022-12-12T13:07:20.010Z,5.88
2022-12-12T13:10:19.082Z,5.60
2022-12-12T13:13:26.456Z,5.88
2022-12-12T13:16:21.080Z,5.97
2022-12-12T13:19:29.992Z,5.30
2022-12-12T13:22:19.534Z,5.47
2022-12-12T13:25:27.931Z,5.65
2022-12-12T13:28:18.143Z,5.47
2022-12-12T13:31:23.320Z,4.72
2022-12-12T13:34:09.609Z,5.10
2022-12-12T13:36:57.310Z,5.43
2022-12-12T13:39:43.775Z,5.40
2022-12-12T13:42:50.097Z,5.60
2022-12-12T13:45:38.529Z,5.45
2022-12-12T13:48:28.643Z,5.35
2022-12-12T13:51:35.749Z,5.63
2022-12-12T13:54:36.279Z,4.95
2022-12-12T14:06:08.686Z,5.30
2022-12-12T14:20:34.179Z,5.75
2022-12-12T14:23:26.204Z,5.60
2022-12-12T14:26:21.614Z,5.47
2022-12-12T14:29:16.912Z,5.68
2022-12-12T14:32:06.214Z,5.40
2022-12-12T14:35:02.350Z,5.53
2022-12-12T14:38:07.375Z,6.15
2022-12-12T14:40:55.984Z,6.15
2022-12-12T14:43:45.909Z,6.13
2022-12-12T14:46:32.982Z,5.80
2022-12-12T14:49:20.553Z,6.30
2022-12-12T14:52:10.385Z,5.97
2022-12-12T14:54:57.255Z,5.82
2022-12-12T14:57:43.822Z,5.90
2022-12-12T15:00:30.082Z,6.57
2022-12-12T15:03:16.995Z,6.25
2022-12-12T15:06:20.643Z,7.03
2022-12-12T15:09:12.272Z,7.20
2022-12-12T15:12:10.731Z,7.18
2022-12-12T15:14:57.963Z,7.18
2022-12-12T15:17:49.533Z,6.60
2022-12-12T15:20:36.684Z,7.07
2022-12-12T15:23:23.145Z,6.63
2022-12-12T15:26:16.165Z,6.03
2022-12-12T15:29:02.422Z,5.18
2022-12-12T15:31:49.732Z,6.07
2022-12-12T15:34:38.553Z,6.57
2022-12-12T15:37:27.451Z,6.35
2022-12-12T15:40:18.359Z,7.07
2022-12-12T15:43:07.144Z,6.28
2022-12-12T15:45:55.716Z,6.78
2022-12-12T15:48:45.392Z,6.80
2022-12-12T15:51:33.131Z,6.10
2022-12-12T15:54:19.891Z,6.57
2022-12-12T15:57:06.383Z,6.65
2022-12-12T16:00:03.388Z,6.32
2022-12-12T16:03:01.861Z,6.63
2022-12-12T16:06:20.967Z,6.63
2022-12-12T16:09:20.547Z,5.88
2022-12-12T16:12:06.735Z,6.80
2022-12-12T16:14:53.411Z,7.35
2022-12-12T16:17:40.380Z,6.95
2022-12-12T16:20:32.980Z,6.45
2022-12-12T16:23:25.441Z,6.80
2022-12-12T16:26:12.283Z,5.50
2022-12-12T16:28:58.614Z,6.40
2022-12-12T16:31:46.005Z,6.95
2022-12-12T16:34:32.422Z,6.63
2022-12-12T16:37:19.140Z,6.45
2022-12-12T16:40:05.609Z,6.32
2022-12-12T16:43:09.526Z,6.35
2022-12-12T16:45:57.826Z,6.70
2022-12-12T16:48:45.360Z,6.60
2022-12-12T16:51:33.295Z,6.82
2022-12-12T16:54:19.731Z,6.95
2022-12-12T16:57:06.120Z,7.13
2022-12-12T16:59:52.883Z,6.43
2022-12-12T17:02:39.379Z,6.85
2022-12-12T17:05:27.030Z,7.03
2022-12-12T17:08:13.445Z,7.57
2022-12-12T17:11:10.676Z,7.38
2022-12-12T17:13:57.277Z,6.80
2022-12-12T17:16:43.568Z,7.13
2022-12-12T17:19:29.635Z,7.00
2022-12-12T17:22:15.828Z,7.28
2022-12-12T17:25:01.852Z,7.18
2022-12-12T17:27:48.047Z,6.72
2022-12-12T17:30:36.921Z,6.78
2022-12-12T17:33:23.396Z,7.00
2022-12-12T17:36:09.574Z,8.00
2022-12-12T17:38:55.681Z,6.78
2022-12-12T17:41:43.299Z,7.00
2022-12-12T17:44:29.908Z,7.55
2022-12-12T17:47:16.994Z,7.13
2022-12-12T17:50:05.038Z,7.32
2022-12-12T17:52:51.389Z,7.22
2022-12-12T17:55:54.206Z,8.10
2022-12-12T17:58:48.311Z,8.25
2022-12-12T18:01:35.152Z,7.50
2022-12-12T18:04:28.329Z,7.47
2022-12-12T18:07:14.966Z,8.00
2022-12-12T18:10:01.316Z,7.45
2022-12-12T18:12:51.573Z,7.80
2022-12-12T18:15:38.260Z,7.38
2022-12-12T18:18:25.577Z,7.93
2022-12-12T18:21:23.741Z,8.77
2022-12-12T18:24:22.410Z,9.05
2022-12-12T18:27:09.842Z,8.85
2022-12-12T18:29:56.115Z,9.60
2022-12-12T18:32:42.383Z,9.27
2022-12-12T18:35:28.862Z,9.02
2022-12-12T18:38:16.858Z,8.65
2022-12-12T18:41:03.745Z,9.07
2022-12-12T18:43:49.689Z,8.65
2022-12-12T18:46:42.341Z,9.52
2022-12-12T18:49:29.294Z,10.48
2022-12-12T18:52:15.422Z,9.82
2022-12-12T18:55:01.790Z,10.55
2022-12-12T18:57:48.235Z,10.82
2022-12-12T19:00:34.633Z,10.25
2022-12-12T19:03:20.830Z,10.48
2022-12-12T19:06:08.535Z,10.95
2022-12-12T19:08:54.717Z,11.18
2022-12-12T19:11:41.036Z,10.70
2022-12-12T19:14:40.381Z,10.85
2022-12-12T19:17:32.726Z,11.70
2022-12-12T19:20:19.092Z,11.25
2022-12-12T19:23:05.637Z,12.00
2022-12-12T19:25:52.598Z,12.60
2022-12-12T19:28:39.300Z,11.43
2022-12-12T19:31:25.986Z,11.63
2022-12-12T19:34:12.752Z,12.68
2022-12-12T19:36:59.411Z,12.27
2022-12-12T19:39:45.691Z,13.70
2022-12-12T19:42:32.060Z,13.07
2022-12-12T19:45:18.200Z,13.75
2022-12-12T19:48:04.299Z,13.40
2022-12-12T19:50:50.668Z,13.73
2022-12-12T19:53:38.170Z,13.75
2022-12-12T19:56:28.613Z,14.63
2022-12-12T19:59:15.833Z,13.65
2022-12-12T20:02:02.783Z,14.25
2022-12-12T20:04:49.757Z,14.13
2022-12-12T20:07:35.962Z,13.98
2022-12-12T20:10:22.823Z,14.30
2022-12-12T20:13:08.883Z,13.90
2022-12-12T20:15:55.918Z,13.88
2022-12-12T20:18:42.361Z,16.40
2022-12-12T20:24:37.103Z,18.35
2022-12-12T20:27:23.936Z,16.33
2022-12-12T20:30:10.298Z,19.38
2022-12-12T20:32:57.268Z,23.42
2022-12-12T20:35:43.553Z,23.25
2022-12-12T20:38:30.747Z,25.95
2022-12-12T20:41:18.384Z,24.98
2022-12-12T20:44:05.420Z,26.08
2022-12-12T20:46:52.348Z,24.83
2022-12-12T20:49:38.475Z,24.05
2022-12-12T20:52:24.833Z,23.58
2022-12-12T20:55:11.616Z,23.58
2022-12-12T20:57:59.639Z,24.08
2022-12-12T21:00:45.937Z,24.60
2022-12-12T21:03:32.328Z,25.55
2022-12-12T21:06:25.934Z,25.88
2022-12-12T21:09:17.647Z,26.77
2022-12-12T21:12:05.734Z,26.60
2022-12-12T21:14:51.745Z,25.15
2022-12-12T21:17:38.374Z,24.35
2022-12-12T21:20:25.411Z,25.67
2022-12-12T21:23:12.320Z,27.13
2022-12-12T21:26:02.406Z,28.80
2022-12-12T21:28:49.732Z,28.67
2022-12-12T21:31:37.857Z,25.83
2022-12-12T21:34:25.195Z,24.48
2022-12-12T21:37:11.887Z,24.85
2022-12-12T21:39:58.404Z,24.33
2022-12-12T21:42:44.667Z,23.77
2022-12-12T21:45:31.486Z,21.80
2022-12-12T21:48:17.669Z,21.67
2022-12-12T21:51:04.796Z,20.52
2022-12-12T21:53:50.841Z,19.88
2022-12-12T21:56:37.304Z,19.35
2022-12-12T21:59:24.747Z,19.80
2022-12-12T22:02:13.570Z,19.95
2022-12-12T22:05:00.510Z,19.85
2022-12-12T22:07:47.463Z,19.75
2022-12-12T22:10:37.399Z,19.85
2022-12-12T22:13:24.573Z,21.17
2022-12-12T22:16:19.351Z,19.55
2022-12-12T22:19:09.127Z,18.95
2022-12-12T22:21:55.268Z,18.02
2022-12-12T22:24:42.813Z,18.65
2022-12-12T22:27:29.584Z,17.73
2022-12-12T22:30:16.311Z,16.55
2022-12-12T22:33:02.310Z,16.42
2022-12-12T22:35:49.267Z,16.15
2022-12-12T22:38:38.404Z,15.85
2022-12-12T22:41:26.049Z,15.10
2022-12-12T22:44:14.987Z,15.13
2022-12-12T22:47:01.425Z,14.52
2022-12-12T22:49:47.762Z,13.35
2022-12-12T22:52:34.440Z,13.80
2022-12-12T22:55:20.603Z,14.40
2022-12-12T22:58:06.899Z,13.95
2022-12-12T23:00:53.172Z,14.43
2022-12-12T23:03:39.557Z,14.48
2022-12-12T23:06:30.287Z,14.20
2022-12-12T23:09:21.823Z,15.13
2022-12-12T23:12:08.319Z,13.18
2022-12-12T23:14:54.326Z,13.50
2022-12-12T23:17:40.489Z,13.60
2022-12-12T23:20:26.617Z,14.38
2022-12-12T23:23:12.720Z,14.45
2022-12-12T23:26:06.631Z,13.63
2022-12-12T23:28:53.078Z,13.13
2022-12-12T23:31:39.811Z,13.90
2022-12-12T23:34:26.014Z,14.23
2022-12-12T23:37:12.281Z,12.98
2022-12-12T23:40:00.759Z,14.02
2022-12-12T23:42:46.931Z,13.63
2022-12-12T23:45:35.563Z,13.23
2022-12-12T23:48:21.767Z,13.43
2022-12-12T23:51:07.814Z,14.38
2022-12-12T23:53:56.625Z,12.55
2022-12-12T23:56:43.381Z,12.93
2022-12-12T23:59:30.054Z,13.50
